sensor_id;sensor_type;location;lat;lon;timestamp;pressure;altitude;pressure_sealevel;temperature;humidity
13235;BME280;6683;48.506;9.050;2022-09-09T00:03:00;97764.75;;;15.69;63.48
13235;BME280;6683;48.506;9.050;2022-09-09T00:06:11;97765.22;;;15.66;63.38
13235;BME280;6683;48.506;9.050;2022-09-09T00:09:19;97761.75;;;15.65;63.88
13235;BME280;6683;48.506;9.050;2022-09-09T00:12:38;97757.50;;;15.64;63.98
13235;BME280;6683;48.506;9.050;2022-09-09T00:15:53;97762.56;;;15.66;64.15
13235;BME280;6683;48.506;9.050;2022-09-09T00:19:03;97757.25;;;15.66;64.17
13235;BME280;6683;48.506;9.050;2022-09-09T00:22:16;97755.16;;;15.68;64.16
13235;BME280;6683;48.506;9.050;2022-09-09T00:25:26;97745.09;;;15.70;64.27
13235;BME280;6683;48.506;9.050;2022-09-09T00:28:38;97751.25;;;15.70;64.32
13235;BME280;6683;48.506;9.050;2022-09-09T00:31:41;97757.59;;;15.69;64.44
13235;BME280;6683;48.506;9.050;2022-09-09T00:34:49;97762.09;;;15.69;64.44
13235;BME280;6683;48.506;9.050;2022-09-09T00:37:56;97757.81;;;15.68;64.33
13235;BME280;6683;48.506;9.050;2022-09-09T00:41:05;97755.63;;;15.65;64.48
13235;BME280;6683;48.506;9.050;2022-09-09T00:44:28;97753.44;;;15.62;64.49
13235;BME280;6683;48.506;9.050;2022-09-09T00:47:46;97756.31;;;15.60;64.62
13235;BME280;6683;48.506;9.050;2022-09-09T00:50:55;97757.59;;;15.58;64.64
13235;BME280;6683;48.506;9.050;2022-09-09T00:54:28;97750.88;;;15.55;64.75
13235;BME280;6683;48.506;9.050;2022-09-09T00:57:35;97759.88;;;15.54;64.70
13235;BME280;6683;48.506;9.050;2022-09-09T01:00:44;97762.78;;;15.53;64.83
13235;BME280;6683;48.506;9.050;2022-09-09T01:03:52;97756.63;;;15.52;64.90
13235;BME280;6683;48.506;9.050;2022-09-09T01:07:02;97748.66;;;15.52;64.90
13235;BME280;6683;48.506;9.050;2022-09-09T01:10:15;97755.03;;;15.51;64.90
13235;BME280;6683;48.506;9.050;2022-09-09T01:13:25;97757.34;;;15.48;64.91
13235;BME280;6683;48.506;9.050;2022-09-09T01:16:32;97753.84;;;15.47;64.99
13235;BME280;6683;48.506;9.050;2022-09-09T01:19:49;97753.47;;;15.44;64.94
13235;BME280;6683;48.506;9.050;2022-09-09T01:23:15;97747.78;;;15.40;65.07
13235;BME280;6683;48.506;9.050;2022-09-09T01:26:24;97753.78;;;15.36;65.16
13235;BME280;6683;48.506;9.050;2022-09-09T01:29:28;97757.72;;;15.33;64.87
13235;BME280;6683;48.506;9.050;2022-09-09T01:32:41;97753.09;;;15.29;65.13
13235;BME280;6683;48.506;9.050;2022-09-09T01:35:50;97760.47;;;15.27;65.19
13235;BME280;6683;48.506;9.050;2022-09-09T01:38:55;97753.75;;;15.24;65.33
13235;BME280;6683;48.506;9.050;2022-09-09T01:42:00;97773.03;;;15.19;65.21
13235;BME280;6683;48.506;9.050;2022-09-09T01:45:04;97774.53;;;15.15;65.41
13235;BME280;6683;48.506;9.050;2022-09-09T01:48:07;97785.59;;;15.12;65.29
13235;BME280;6683;48.506;9.050;2022-09-09T01:51:10;97789.97;;;15.07;65.30
13235;BME280;6683;48.506;9.050;2022-09-09T01:54:12;97790.88;;;15.01;65.27
13235;BME280;6683;48.506;9.050;2022-09-09T01:57:21;97789.94;;;14.95;65.44
13235;BME280;6683;48.506;9.050;2022-09-09T02:00:25;97782.16;;;14.94;65.53
13235;BME280;6683;48.506;9.050;2022-09-09T02:03:29;97774.19;;;14.94;65.55
13235;BME280;6683;48.506;9.050;2022-09-09T02:06:36;97774.00;;;14.95;65.56
13235;BME280;6683;48.506;9.050;2022-09-09T02:09:42;97770.06;;;14.98;65.71
13235;BME280;6683;48.506;9.050;2022-09-09T02:12:53;97780.47;;;14.99;65.79
13235;BME280;6683;48.506;9.050;2022-09-09T02:16:03;97786.38;;;15.01;65.83
13235;BME280;6683;48.506;9.050;2022-09-09T02:19:13;97775.28;;;15.04;65.79
13235;BME280;6683;48.506;9.050;2022-09-09T02:22:20;97766.28;;;15.05;65.96
13235;BME280;6683;48.506;9.050;2022-09-09T02:25:28;97770.34;;;15.08;65.83
13235;BME280;6683;48.506;9.050;2022-09-09T02:28:32;97780.75;;;15.09;65.89
13235;BME280;6683;48.506;9.050;2022-09-09T02:31:37;97794.63;;;15.11;66.04
13235;BME280;6683;48.506;9.050;2022-09-09T02:34:44;97795.44;;;15.12;66.00
13235;BME280;6683;48.506;9.050;2022-09-09T02:37:47;97799.28;;;15.16;66.24
13235;BME280;6683;48.506;9.050;2022-09-09T02:40:51;97801.47;;;15.19;66.17
13235;BME280;6683;48.506;9.050;2022-09-09T02:43:55;97802.63;;;15.23;66.24
13235;BME280;6683;48.506;9.050;2022-09-09T02:47:18;97779.09;;;15.27;66.44
13235;BME280;6683;48.506;9.050;2022-09-09T02:50:29;97777.38;;;15.32;66.54
13235;BME280;6683;48.506;9.050;2022-09-09T02:53:43;97766.63;;;15.39;66.59
13235;BME280;6683;48.506;9.050;2022-09-09T02:56:53;97776.63;;;15.43;66.36
13235;BME280;6683;48.506;9.050;2022-09-09T02:59:59;97782.31;;;15.47;66.37
13235;BME280;6683;48.506;9.050;2022-09-09T03:03:03;97777.31;;;15.50;66.58
13235;BME280;6683;48.506;9.050;2022-09-09T03:06:06;97779.31;;;15.55;66.30
13235;BME280;6683;48.506;9.050;2022-09-09T03:09:08;97787.44;;;15.60;66.47
13235;BME280;6683;48.506;9.050;2022-09-09T03:12:11;97786.75;;;15.64;66.24
13235;BME280;6683;48.506;9.050;2022-09-09T03:15:16;97789.75;;;15.68;66.42
13235;BME280;6683;48.506;9.050;2022-09-09T03:18:18;97786.84;;;15.69;66.34
13235;BME280;6683;48.506;9.050;2022-09-09T03:21:20;97798.09;;;15.71;66.34
13235;BME280;6683;48.506;9.050;2022-09-09T03:24:23;97799.25;;;15.75;66.47
13235;BME280;6683;48.506;9.050;2022-09-09T03:27:26;97791.63;;;15.79;66.50
13235;BME280;6683;48.506;9.050;2022-09-09T03:30:29;97791.97;;;15.82;66.56
13235;BME280;6683;48.506;9.050;2022-09-09T03:33:32;97796.63;;;15.87;66.50
13235;BME280;6683;48.506;9.050;2022-09-09T03:36:37;97795.34;;;15.89;66.52
13235;BME280;6683;48.506;9.050;2022-09-09T03:39:40;97785.88;;;15.93;66.54
13235;BME280;6683;48.506;9.050;2022-09-09T03:42:42;97785.41;;;15.96;66.39
13235;BME280;6683;48.506;9.050;2022-09-09T03:45:47;97772.66;;;15.98;66.41
13235;BME280;6683;48.506;9.050;2022-09-09T03:48:50;97762.34;;;16.02;66.35
13235;BME280;6683;48.506;9.050;2022-09-09T03:51:53;97777.31;;;16.03;66.19
13235;BME280;6683;48.506;9.050;2022-09-09T03:54:55;97768.72;;;16.01;66.34
13235;BME280;6683;48.506;9.050;2022-09-09T03:57:58;97768.72;;;16.01;66.21
13235;BME280;6683;48.506;9.050;2022-09-09T04:01:05;97768.97;;;15.99;66.22
13235;BME280;6683;48.506;9.050;2022-09-09T04:04:09;97773.72;;;15.97;66.15
13235;BME280;6683;48.506;9.050;2022-09-09T04:07:12;97775.44;;;15.92;66.16
13235;BME280;6683;48.506;9.050;2022-09-09T04:10:15;97774.06;;;15.89;66.03
13235;BME280;6683;48.506;9.050;2022-09-09T04:13:18;97766.28;;;15.88;66.27
13235;BME280;6683;48.506;9.050;2022-09-09T04:16:23;97759.94;;;15.89;66.42
13235;BME280;6683;48.506;9.050;2022-09-09T04:19:25;97766.88;;;15.90;66.50
13235;BME280;6683;48.506;9.050;2022-09-09T04:22:27;97776.84;;;15.94;66.63
13235;BME280;6683;48.506;9.050;2022-09-09T04:25:30;97784.38;;;15.97;66.35
13235;BME280;6683;48.506;9.050;2022-09-09T04:28:35;97774.06;;;16.01;66.87
13235;BME280;6683;48.506;9.050;2022-09-09T04:31:39;97777.06;;;16.05;66.64
13235;BME280;6683;48.506;9.050;2022-09-09T04:34:42;97780.66;;;16.10;66.65
13235;BME280;6683;48.506;9.050;2022-09-09T04:37:46;97772.22;;;16.13;66.66
13235;BME280;6683;48.506;9.050;2022-09-09T04:40:50;97774.41;;;16.16;66.66
13235;BME280;6683;48.506;9.050;2022-09-09T04:43:54;97775.56;;;16.20;66.48
13235;BME280;6683;48.506;9.050;2022-09-09T04:46:58;97777.19;;;16.21;66.49
13235;BME280;6683;48.506;9.050;2022-09-09T04:50:01;97777.75;;;16.23;66.41
13235;BME280;6683;48.506;9.050;2022-09-09T04:53:04;97771.84;;;16.21;66.28
13235;BME280;6683;48.506;9.050;2022-09-09T04:56:09;97778.25;;;16.20;66.43
13235;BME280;6683;48.506;9.050;2022-09-09T04:59:12;97769.66;;;16.18;66.47
13235;BME280;6683;48.506;9.050;2022-09-09T05:02:15;97780.53;;;16.17;66.35
13235;BME280;6683;48.506;9.050;2022-09-09T05:05:17;97786.91;;;16.16;66.25
13235;BME280;6683;48.506;9.050;2022-09-09T05:08:21;97794.91;;;16.16;66.34
13235;BME280;6683;48.506;9.050;2022-09-09T05:11:25;97795.94;;;16.15;66.42
13235;BME280;6683;48.506;9.050;2022-09-09T05:14:28;97788.06;;;16.20;66.44
13235;BME280;6683;48.506;9.050;2022-09-09T05:17:33;97789.22;;;16.24;66.40
13235;BME280;6683;48.506;9.050;2022-09-09T05:20:35;97788.53;;;16.28;66.26
13235;BME280;6683;48.506;9.050;2022-09-09T05:23:38;97780.06;;;16.31;66.29
13235;BME280;6683;48.506;9.050;2022-09-09T05:26:40;97794.78;;;16.34;66.41
13235;BME280;6683;48.506;9.050;2022-09-09T05:29:43;97801.97;;;16.33;66.06
13235;BME280;6683;48.506;9.050;2022-09-09T05:32:47;97806.50;;;16.33;66.30
13235;BME280;6683;48.506;9.050;2022-09-09T05:35:56;97809.97;;;16.33;66.39
13235;BME280;6683;48.506;9.050;2022-09-09T05:38:59;97810.06;;;16.38;66.56
13235;BME280;6683;48.506;9.050;2022-09-09T05:42:02;97807.72;;;16.42;66.44
13235;BME280;6683;48.506;9.050;2022-09-09T05:45:06;97808.31;;;16.44;66.41
13235;BME280;6683;48.506;9.050;2022-09-09T05:48:11;97801.97;;;16.45;66.52
13235;BME280;6683;48.506;9.050;2022-09-09T05:51:16;97808.44;;;16.49;66.62
13235;BME280;6683;48.506;9.050;2022-09-09T05:54:18;97822.69;;;16.54;66.50
13235;BME280;6683;48.506;9.050;2022-09-09T05:57:21;97825.50;;;16.59;66.71
13235;BME280;6683;48.506;9.050;2022-09-09T06:00:23;97814.72;;;16.66;66.66
13235;BME280;6683;48.506;9.050;2022-09-09T06:03:27;97809.03;;;16.74;66.71
13235;BME280;6683;48.506;9.050;2022-09-09T06:06:32;97812.59;;;16.79;66.70
13235;BME280;6683;48.506;9.050;2022-09-09T06:09:37;97816.75;;;16.87;66.71
13235;BME280;6683;48.506;9.050;2022-09-09T06:12:39;97821.16;;;16.93;66.68
13235;BME280;6683;48.506;9.050;2022-09-09T06:15:50;97822.06;;;16.99;66.63
13235;BME280;6683;48.506;9.050;2022-09-09T06:18:55;97817.72;;;17.09;66.93
13235;BME280;6683;48.506;9.050;2022-09-09T06:21:58;97809.94;;;17.19;66.68
13235;BME280;6683;48.506;9.050;2022-09-09T06:25:01;97809.31;;;17.29;66.70
13235;BME280;6683;48.506;9.050;2022-09-09T06:28:03;97816.22;;;17.41;66.51
13235;BME280;6683;48.506;9.050;2022-09-09T06:31:10;97813.53;;;17.53;66.73
13235;BME280;6683;48.506;9.050;2022-09-09T06:34:15;97813.50;;;17.65;66.50
13235;BME280;6683;48.506;9.050;2022-09-09T06:37:17;97815.25;;;17.76;66.34
13235;BME280;6683;48.506;9.050;2022-09-09T06:40:19;97813.00;;;17.84;66.34
13235;BME280;6683;48.506;9.050;2022-09-09T06:43:22;97815.06;;;17.94;66.30
13235;BME280;6683;48.506;9.050;2022-09-09T06:46:27;97814.16;;;18.05;66.25
13235;BME280;6683;48.506;9.050;2022-09-09T06:49:31;97819.16;;;18.18;66.10
13235;BME280;6683;48.506;9.050;2022-09-09T06:52:33;97812.13;;;18.28;66.21
13235;BME280;6683;48.506;9.050;2022-09-09T06:55:36;97812.81;;;18.41;66.04
13235;BME280;6683;48.506;9.050;2022-09-09T06:58:40;97819.97;;;18.52;65.87
13235;BME280;6683;48.506;9.050;2022-09-09T07:01:43;97825.19;;;18.63;65.74
13235;BME280;6683;48.506;9.050;2022-09-09T07:04:48;97820.59;;;18.75;65.69
13235;BME280;6683;48.506;9.050;2022-09-09T07:07:51;97817.28;;;18.90;65.50
13235;BME280;6683;48.506;9.050;2022-09-09T07:10:54;97819.00;;;19.01;65.29
13235;BME280;6683;48.506;9.050;2022-09-09T07:13:59;97817.53;;;19.10;65.13
13235;BME280;6683;48.506;9.050;2022-09-09T07:17:02;97820.88;;;19.22;64.77
13235;BME280;6683;48.506;9.050;2022-09-09T07:20:07;97815.44;;;19.34;64.69
13235;BME280;6683;48.506;9.050;2022-09-09T07:23:10;97816.66;;;19.48;64.54
13235;BME280;6683;48.506;9.050;2022-09-09T07:26:14;97822.91;;;19.58;64.62
13235;BME280;6683;48.506;9.050;2022-09-09T07:29:17;97830.03;;;19.74;64.55
13235;BME280;6683;48.506;9.050;2022-09-09T07:32:19;97832.31;;;19.92;64.49
13235;BME280;6683;48.506;9.050;2022-09-09T07:35:23;97828.47;;;20.10;64.43
13235;BME280;6683;48.506;9.050;2022-09-09T07:38:27;97826.25;;;20.29;64.41
13235;BME280;6683;48.506;9.050;2022-09-09T07:41:34;97827.69;;;20.46;63.90
13235;BME280;6683;48.506;9.050;2022-09-09T07:44:37;97836.09;;;20.60;63.62
13235;BME280;6683;48.506;9.050;2022-09-09T07:47:40;97838.56;;;20.71;63.41
13235;BME280;6683;48.506;9.050;2022-09-09T07:50:44;97835.69;;;20.83;63.37
13235;BME280;6683;48.506;9.050;2022-09-09T07:53:47;97830.16;;;21.00;63.03
13235;BME280;6683;48.506;9.050;2022-09-09T07:56:50;97839.34;;;21.14;62.86
13235;BME280;6683;48.506;9.050;2022-09-09T07:59:53;97833.50;;;21.27;62.63
13235;BME280;6683;48.506;9.050;2022-09-09T08:02:56;97837.84;;;21.38;62.31
13235;BME280;6683;48.506;9.050;2022-09-09T08:06:03;97830.88;;;21.42;61.61
13235;BME280;6683;48.506;9.050;2022-09-09T08:09:09;97835.97;;;21.43;61.62
13235;BME280;6683;48.506;9.050;2022-09-09T08:12:12;97838.38;;;21.45;61.64
13235;BME280;6683;48.506;9.050;2022-09-09T08:15:15;97844.88;;;21.54;61.47
13235;BME280;6683;48.506;9.050;2022-09-09T08:18:18;97846.50;;;21.70;61.41
13235;BME280;6683;48.506;9.050;2022-09-09T08:21:23;97854.91;;;21.89;61.25
13235;BME280;6683;48.506;9.050;2022-09-09T08:24:28;97853.59;;;22.06;60.96
13235;BME280;6683;48.506;9.050;2022-09-09T08:27:30;97843.63;;;22.22;60.46
13235;BME280;6683;48.506;9.050;2022-09-09T08:30:32;97846.56;;;22.41;60.28
13235;BME280;6683;48.506;9.050;2022-09-09T08:33:35;97844.97;;;22.60;60.17
13235;BME280;6683;48.506;9.050;2022-09-09T08:36:42;97846.00;;;22.74;59.59
13235;BME280;6683;48.506;9.050;2022-09-09T08:39:45;97843.84;;;22.86;59.35
13235;BME280;6683;48.506;9.050;2022-09-09T08:42:51;97848.38;;;22.95;59.08
13235;BME280;6683;48.506;9.050;2022-09-09T08:46:01;97847.81;;;23.03;59.24
13235;BME280;6683;48.506;9.050;2022-09-09T08:49:20;97845.66;;;23.11;58.60
13235;BME280;6683;48.506;9.050;2022-09-09T08:52:30;97852.88;;;23.20;58.45
13235;BME280;6683;48.506;9.050;2022-09-09T08:55:41;97856.38;;;23.26;58.43
13235;BME280;6683;48.506;9.050;2022-09-09T08:58:50;97849.09;;;23.36;58.50
13235;BME280;6683;48.506;9.050;2022-09-09T09:02:03;97850.09;;;23.45;58.08
13235;BME280;6683;48.506;9.050;2022-09-09T09:05:20;97839.53;;;23.59;57.80
13235;BME280;6683;48.506;9.050;2022-09-09T09:08:32;97832.06;;;23.84;57.54
13235;BME280;6683;48.506;9.050;2022-09-09T09:11:42;97837.19;;;24.25;56.79
13235;BME280;6683;48.506;9.050;2022-09-09T09:14:48;97830.00;;;24.78;56.62
13235;BME280;6683;48.506;9.050;2022-09-09T09:17:51;97820.94;;;25.34;55.64
13235;BME280;6683;48.506;9.050;2022-09-09T09:21:02;97808.47;;;25.94;54.63
13235;BME280;6683;48.506;9.050;2022-09-09T09:24:16;97807.09;;;26.61;53.27
13235;BME280;6683;48.506;9.050;2022-09-09T09:27:31;97803.13;;;27.13;52.37
13235;BME280;6683;48.506;9.050;2022-09-09T09:30:38;97808.50;;;27.54;50.99
13235;BME280;6683;48.506;9.050;2022-09-09T09:33:47;97806.69;;;27.85;50.29
13235;BME280;6683;48.506;9.050;2022-09-09T09:36:54;97798.19;;;28.14;49.29
13235;BME280;6683;48.506;9.050;2022-09-09T09:40:10;97791.03;;;28.48;48.45
13235;BME280;6683;48.506;9.050;2022-09-09T09:43:20;97799.59;;;28.95;47.53
13235;BME280;6683;48.506;9.050;2022-09-09T09:46:24;97784.72;;;29.49;45.66
13235;BME280;6683;48.506;9.050;2022-09-09T09:49:27;97780.44;;;29.90;44.75
13235;BME280;6683;48.506;9.050;2022-09-09T09:52:31;97773.94;;;30.29;43.33
13235;BME280;6683;48.506;9.050;2022-09-09T09:55:48;97764.63;;;30.56;42.93
13235;BME280;6683;48.506;9.050;2022-09-09T09:58:52;97772.13;;;30.67;42.63
13235;BME280;6683;48.506;9.050;2022-09-09T10:02:15;97768.09;;;30.65;42.57
13235;BME280;6683;48.506;9.050;2022-09-09T10:05:20;97768.56;;;30.12;42.16
13235;BME280;6683;48.506;9.050;2022-09-09T10:08:26;97767.59;;;29.48;42.38
13235;BME280;6683;48.506;9.050;2022-09-09T10:11:44;97763.91;;;29.44;43.02
13235;BME280;6683;48.506;9.050;2022-09-09T10:14:54;97763.63;;;29.88;42.29
13235;BME280;6683;48.506;9.050;2022-09-09T10:18:10;97771.41;;;30.41;41.49
13235;BME280;6683;48.506;9.050;2022-09-09T10:21:40;97751.06;;;31.14;40.58
13235;BME280;6683;48.506;9.050;2022-09-09T10:25:21;97751.00;;;31.52;40.08
13235;BME280;6683;48.506;9.050;2022-09-09T10:28:49;97752.69;;;31.36;40.07
13235;BME280;6683;48.506;9.050;2022-09-09T10:32:07;97756.66;;;31.68;38.96
13235;BME280;6683;48.506;9.050;2022-09-09T10:35:29;97751.38;;;32.04;37.76
13235;BME280;6683;48.506;9.050;2022-09-09T10:38:39;97748.47;;;32.54;36.75
13235;BME280;6683;48.506;9.050;2022-09-09T10:41:54;97735.50;;;32.87;35.85
13235;BME280;6683;48.506;9.050;2022-09-09T10:45:16;97733.69;;;33.03;35.18
13235;BME280;6683;48.506;9.050;2022-09-09T10:48:43;97729.69;;;33.25;34.84
13235;BME280;6683;48.506;9.050;2022-09-09T10:52:00;97733.50;;;33.48;34.24
13235;BME280;6683;48.506;9.050;2022-09-09T10:55:11;97717.72;;;33.69;34.15
13235;BME280;6683;48.506;9.050;2022-09-09T10:58:22;97718.63;;;34.01;33.79
13235;BME280;6683;48.506;9.050;2022-09-09T11:01:32;97715.44;;;34.42;33.67
13235;BME280;6683;48.506;9.050;2022-09-09T11:04:44;97703.06;;;34.79;32.42
13235;BME280;6683;48.506;9.050;2022-09-09T11:07:55;97717.44;;;34.45;31.90
13235;BME280;6683;48.506;9.050;2022-09-09T11:11:03;97723.53;;;33.95;32.13
13235;BME280;6683;48.506;9.050;2022-09-09T11:14:14;97741.16;;;33.54;32.27
13235;BME280;6683;48.506;9.050;2022-09-09T11:17:24;97760.66;;;32.80;32.87
13235;BME280;6683;48.506;9.050;2022-09-09T11:20:28;97775.03;;;31.79;33.89
13235;BME280;6683;48.506;9.050;2022-09-09T11:23:37;97774.72;;;30.55;34.73
13235;BME280;6683;48.506;9.050;2022-09-09T11:26:47;97780.38;;;29.39;35.60
13235;BME280;6683;48.506;9.050;2022-09-09T11:30:15;97770.38;;;28.61;36.94
13235;BME280;6683;48.506;9.050;2022-09-09T11:37:16;97777.41;;;27.96;38.07
13235;BME280;6683;48.506;9.050;2022-09-09T11:40:23;97761.97;;;28.80;37.40
13235;BME280;6683;48.506;9.050;2022-09-09T11:43:31;97766.66;;;29.70;36.53
13235;BME280;6683;48.506;9.050;2022-09-09T11:46:38;97761.13;;;30.47;36.34
13235;BME280;6683;48.506;9.050;2022-09-09T11:49:43;97753.69;;;31.02;35.61
13235;BME280;6683;48.506;9.050;2022-09-09T11:52:48;97760.78;;;31.53;35.20
13235;BME280;6683;48.506;9.050;2022-09-09T11:56:25;97752.31;;;32.08;33.84
13235;BME280;6683;48.506;9.050;2022-09-09T11:59:30;97757.78;;;32.53;33.60
13235;BME280;6683;48.506;9.050;2022-09-09T12:02:33;97749.16;;;32.87;32.54
13235;BME280;6683;48.506;9.050;2022-09-09T12:05:42;97754.28;;;33.37;32.17
13235;BME280;6683;48.506;9.050;2022-09-09T12:08:50;97759.63;;;33.45;31.60
13235;BME280;6683;48.506;9.050;2022-09-09T12:12:06;97742.28;;;33.41;31.44
13235;BME280;6683;48.506;9.050;2022-09-09T12:15:23;97741.25;;;33.46;31.29
13235;BME280;6683;48.506;9.050;2022-09-09T12:18:33;97755.19;;;33.41;31.48
13235;BME280;6683;48.506;9.050;2022-09-09T12:21:46;97747.03;;;33.68;31.03
13235;BME280;6683;48.506;9.050;2022-09-09T12:24:57;97761.13;;;33.82;30.43
13235;BME280;6683;48.506;9.050;2022-09-09T12:28:09;97751.28;;;33.94;30.73
13235;BME280;6683;48.506;9.050;2022-09-09T12:31:17;97758.94;;;33.36;30.46
13235;BME280;6683;48.506;9.050;2022-09-09T12:34:36;97760.91;;;32.87;30.67
13235;BME280;6683;48.506;9.050;2022-09-09T12:37:46;97756.66;;;32.66;30.88
13235;BME280;6683;48.506;9.050;2022-09-09T12:40:56;97759.56;;;32.04;31.54
13235;BME280;6683;48.506;9.050;2022-09-09T12:44:04;97757.44;;;31.68;31.90
13235;BME280;6683;48.506;9.050;2022-09-09T12:47:11;97752.31;;;30.88;32.13
13235;BME280;6683;48.506;9.050;2022-09-09T12:50:21;97744.09;;;29.86;32.36
13235;BME280;6683;48.506;9.050;2022-09-09T12:53:29;97743.50;;;28.99;33.01
13235;BME280;6683;48.506;9.050;2022-09-09T12:56:33;97735.88;;;28.39;34.12
13235;BME280;6683;48.506;9.050;2022-09-09T12:59:38;97743.88;;;27.92;34.58
13235;BME280;6683;48.506;9.050;2022-09-09T13:02:50;97743.44;;;27.54;34.43
13235;BME280;6683;48.506;9.050;2022-09-09T13:05:57;97737.38;;;27.35;35.25
13235;BME280;6683;48.506;9.050;2022-09-09T13:09:03;97736.81;;;27.33;35.43
13235;BME280;6683;48.506;9.050;2022-09-09T13:12:06;97739.16;;;27.26;36.07
13235;BME280;6683;48.506;9.050;2022-09-09T13:15:20;97732.53;;;27.18;36.02
13235;BME280;6683;48.506;9.050;2022-09-09T13:18:25;97724.84;;;27.12;36.88
13235;BME280;6683;48.506;9.050;2022-09-09T13:21:34;97729.47;;;26.98;36.60
13235;BME280;6683;48.506;9.050;2022-09-09T13:24:39;97737.94;;;26.82;36.41
13235;BME280;6683;48.506;9.050;2022-09-09T13:27:54;97727.19;;;26.64;36.87
13235;BME280;6683;48.506;9.050;2022-09-09T13:30:58;97737.69;;;26.52;36.89
13235;BME280;6683;48.506;9.050;2022-09-09T13:34:11;97727.84;;;26.42;37.19
13235;BME280;6683;48.506;9.050;2022-09-09T13:37:23;97725.34;;;26.46;36.98
13235;BME280;6683;48.506;9.050;2022-09-09T13:40:27;97712.53;;;26.51;37.64
13235;BME280;6683;48.506;9.050;2022-09-09T13:43:34;97718.72;;;26.52;37.18
13235;BME280;6683;48.506;9.050;2022-09-09T13:46:39;97717.16;;;26.51;37.61
13235;BME280;6683;48.506;9.050;2022-09-09T13:49:42;97706.50;;;26.54;37.36
13235;BME280;6683;48.506;9.050;2022-09-09T13:52:46;97709.63;;;26.61;37.21
13235;BME280;6683;48.506;9.050;2022-09-09T13:55:52;97711.72;;;26.64;36.85
13235;BME280;6683;48.506;9.050;2022-09-09T13:58:54;97704.72;;;26.63;36.90
13235;BME280;6683;48.506;9.050;2022-09-09T14:01:58;97699.28;;;26.63;36.74
13235;BME280;6683;48.506;9.050;2022-09-09T14:05:02;97698.97;;;26.65;37.06
13235;BME280;6683;48.506;9.050;2022-09-09T14:08:06;97701.38;;;26.66;37.03
13235;BME280;6683;48.506;9.050;2022-09-09T14:11:12;97694.06;;;26.67;36.88
13235;BME280;6683;48.506;9.050;2022-09-09T14:14:15;97698.91;;;26.70;36.93
13235;BME280;6683;48.506;9.050;2022-09-09T14:17:17;97701.69;;;26.65;36.58
13235;BME280;6683;48.506;9.050;2022-09-09T14:20:20;97685.84;;;26.58;36.49
13235;BME280;6683;48.506;9.050;2022-09-09T14:23:22;97698.06;;;26.56;36.83
13235;BME280;6683;48.506;9.050;2022-09-09T14:26:26;97699.19;;;26.55;36.80
13235;BME280;6683;48.506;9.050;2022-09-09T14:29:29;97695.97;;;26.53;37.00
13235;BME280;6683;48.506;9.050;2022-09-09T14:32:32;97697.06;;;26.52;36.98
13235;BME280;6683;48.506;9.050;2022-09-09T14:35:34;97696.56;;;26.50;36.75
13235;BME280;6683;48.506;9.050;2022-09-09T14:38:38;97691.28;;;26.45;36.85
13235;BME280;6683;48.506;9.050;2022-09-09T14:41:43;97683.94;;;26.45;36.77
13235;BME280;6683;48.506;9.050;2022-09-09T14:44:46;97690.66;;;26.48;36.36
13235;BME280;6683;48.506;9.050;2022-09-09T14:47:50;97685.75;;;26.50;36.60
13235;BME280;6683;48.506;9.050;2022-09-09T14:50:52;97688.75;;;26.48;36.36
13235;BME280;6683;48.506;9.050;2022-09-09T14:53:58;97689.97;;;26.42;36.69
13235;BME280;6683;48.506;9.050;2022-09-09T14:57:04;97690.38;;;26.36;36.71
13235;BME280;6683;48.506;9.050;2022-09-09T15:00:09;97697.28;;;26.28;36.82
13235;BME280;6683;48.506;9.050;2022-09-09T15:03:11;97704.16;;;26.21;37.05
13235;BME280;6683;48.506;9.050;2022-09-09T15:06:15;97703.78;;;26.13;36.91
13235;BME280;6683;48.506;9.050;2022-09-09T15:09:18;97702.97;;;26.13;36.49
13235;BME280;6683;48.506;9.050;2022-09-09T15:12:22;97700.47;;;26.17;36.26
13235;BME280;6683;48.506;9.050;2022-09-09T15:15:24;97706.09;;;26.20;35.96
13235;BME280;6683;48.506;9.050;2022-09-09T15:18:27;97703.16;;;26.17;35.86
13235;BME280;6683;48.506;9.050;2022-09-09T15:21:32;97700.56;;;26.11;36.04
13235;BME280;6683;48.506;9.050;2022-09-09T15:24:35;97703.03;;;26.08;36.10
13235;BME280;6683;48.506;9.050;2022-09-09T15:27:38;97696.91;;;26.02;36.40
13235;BME280;6683;48.506;9.050;2022-09-09T15:30:41;97700.59;;;25.93;35.87
13235;BME280;6683;48.506;9.050;2022-09-09T15:33:50;97700.25;;;25.81;36.27
13235;BME280;6683;48.506;9.050;2022-09-09T15:36:53;97701.31;;;25.66;36.37
13235;BME280;6683;48.506;9.050;2022-09-09T15:39:56;97698.75;;;25.56;36.37
13235;BME280;6683;48.506;9.050;2022-09-09T15:43:02;97692.66;;;25.51;36.67
13235;BME280;6683;48.506;9.050;2022-09-09T15:46:27;97696.53;;;25.45;36.45
13235;BME280;6683;48.506;9.050;2022-09-09T15:49:30;97694.41;;;25.42;36.69
13235;BME280;6683;48.506;9.050;2022-09-09T15:52:32;97713.59;;;25.40;36.65
13235;BME280;6683;48.506;9.050;2022-09-09T15:55:34;97716.34;;;25.35;36.83
13235;BME280;6683;48.506;9.050;2022-09-09T15:58:38;97716.72;;;25.28;36.75
13235;BME280;6683;48.506;9.050;2022-09-09T16:01:41;97726.28;;;25.21;36.44
13235;BME280;6683;48.506;9.050;2022-09-09T16:04:44;97732.34;;;25.13;36.67
13235;BME280;6683;48.506;9.050;2022-09-09T16:07:46;97735.97;;;25.03;36.85
13235;BME280;6683;48.506;9.050;2022-09-09T16:10:49;97728.00;;;24.93;37.07
13235;BME280;6683;48.506;9.050;2022-09-09T16:13:54;97727.84;;;24.85;37.11
13235;BME280;6683;48.506;9.050;2022-09-09T16:16:57;97741.13;;;24.81;37.27
13235;BME280;6683;48.506;9.050;2022-09-09T16:19:59;97742.56;;;24.74;37.28
13235;BME280;6683;48.506;9.050;2022-09-09T16:23:01;97745.28;;;24.69;37.30
13235;BME280;6683;48.506;9.050;2022-09-09T16:26:04;97749.13;;;24.63;37.46
13235;BME280;6683;48.506;9.050;2022-09-09T16:29:07;97747.06;;;24.54;37.62
13235;BME280;6683;48.506;9.050;2022-09-09T16:32:10;97746.16;;;24.40;37.85
13235;BME280;6683;48.506;9.050;2022-09-09T16:35:13;97755.94;;;24.31;38.17
13235;BME280;6683;48.506;9.050;2022-09-09T16:38:16;97759.56;;;24.22;38.29
13235;BME280;6683;48.506;9.050;2022-09-09T16:41:18;97759.63;;;24.12;38.29
13235;BME280;6683;48.506;9.050;2022-09-09T16:44:22;97761.59;;;24.01;38.49
13235;BME280;6683;48.506;9.050;2022-09-09T16:47:26;97774.38;;;23.91;38.92